createdAt,value
2022-10-10T00:01:24.873Z,39.73
2022-10-10T00:06:31.889Z,36.50
2022-10-10T00:11:35.763Z,35.90
2022-10-10T00:16:38.270Z,34.50
2022-10-10T00:21:41.390Z,36.13
2022-10-10T00:26:43.718Z,37.47
2022-10-10T00:31:46.028Z,41.83
2022-10-10T00:36:48.326Z,40.07
2022-10-10T00:41:50.661Z,35.07
2022-10-10T00:46:52.995Z,29.23
2022-10-10T00:51:59.120Z,29.63
2022-10-10T00:57:06.169Z,30.43
2022-10-10T01:02:08.958Z,32.03
2022-10-10T01:07:15.635Z,33.53
2022-10-10T01:12:26.834Z,34.63
2022-10-10T01:17:51.493Z,29.57
2022-10-10T01:23:19.843Z,37.20
2022-10-10T01:28:39.959Z,36.50
2022-10-10T01:34:01.824Z,33.47
2022-10-10T01:39:21.319Z,28.30
2022-10-10T01:44:23.634Z,32.60
2022-10-10T01:49:30.417Z,32.80
2022-10-10T01:54:49.258Z,32.23
2022-10-10T02:00:14.244Z,29.67
2022-10-10T02:05:37.674Z,30.40
2022-10-10T02:10:56.945Z,36.17
2022-10-10T02:16:02.811Z,28.63
2022-10-10T02:21:07.806Z,37.67
2022-10-10T02:26:13.938Z,31.70
2022-10-10T02:31:24.799Z,38.13
2022-10-10T02:36:29.324Z,26.83
2022-10-10T02:41:33.458Z,30.33
2022-10-10T02:46:35.823Z,31.07
2022-10-10T02:51:39.387Z,24.70
2022-10-10T02:56:41.665Z,30.70
2022-10-10T03:01:44.622Z,25.73
2022-10-10T03:06:46.901Z,30.40
2022-10-10T03:11:49.263Z,27.77
2022-10-10T03:16:51.567Z,28.97
2022-10-10T03:21:53.879Z,27.37
2022-10-10T03:26:56.212Z,23.37
2022-10-10T03:31:58.754Z,28.40
2022-10-10T03:37:01.068Z,23.43
2022-10-10T03:42:03.775Z,26.53
2022-10-10T03:47:06.070Z,29.33
2022-10-10T03:52:08.437Z,25.80
2022-10-10T03:57:10.763Z,25.67
2022-10-10T04:02:13.081Z,22.70
2022-10-10T04:07:15.370Z,20.63
2022-10-10T04:12:17.716Z,32.70
2022-10-10T04:17:20.060Z,38.63
2022-10-10T04:22:22.364Z,41.10
2022-10-10T04:27:24.710Z,34.57
2022-10-10T04:32:27.135Z,24.70
2022-10-10T04:37:29.544Z,32.27
2022-10-10T04:42:31.929Z,30.97
2022-10-10T04:47:34.227Z,25.60
2022-10-10T04:52:36.564Z,27.57
2022-10-10T04:57:38.863Z,35.57
2022-10-10T05:02:41.231Z,25.67
2022-10-10T05:07:43.571Z,27.63
2022-10-10T05:12:45.864Z,39.00
2022-10-10T05:17:48.242Z,34.07
2022-10-10T05:22:50.902Z,36.60
2022-10-10T05:27:53.468Z,27.57
2022-10-10T05:32:56.559Z,27.00
2022-10-10T05:37:58.907Z,25.40
2022-10-10T05:43:01.265Z,25.03
2022-10-10T05:48:03.800Z,26.03
2022-10-10T05:53:06.945Z,29.83
2022-10-10T05:58:09.238Z,27.97
2022-10-10T06:03:14.215Z,32.20
2022-10-10T06:08:16.541Z,28.67
2022-10-10T06:13:24.471Z,29.80
2022-10-10T06:18:27.252Z,34.30
2022-10-10T06:23:29.790Z,29.27
2022-10-10T06:28:35.497Z,35.40
2022-10-10T06:33:38.026Z,29.83
2022-10-10T06:38:41.973Z,33.60
2022-10-10T06:43:44.259Z,43.57
2022-10-10T06:48:47.144Z,29.93
2022-10-10T06:53:49.708Z,26.83
2022-10-10T06:58:52.152Z,25.67
2022-10-10T07:03:56.167Z,30.80
2022-10-10T07:08:58.612Z,28.50
2022-10-10T07:14:01.042Z,27.07
2022-10-10T07:19:04.173Z,23.10
2022-10-10T07:24:06.538Z,27.50
2022-10-10T07:29:08.861Z,35.23
2022-10-10T07:34:11.223Z,32.77
2022-10-10T07:39:17.138Z,27.77
2022-10-10T07:44:24.476Z,25.47
2022-10-10T07:49:26.825Z,23.30
2022-10-10T07:54:30.300Z,22.07
2022-10-10T07:59:32.631Z,22.80
2022-10-10T08:04:35.912Z,23.70
2022-10-10T08:09:38.297Z,18.63
2022-10-10T08:14:40.613Z,18.53
2022-10-10T08:19:42.919Z,16.97
2022-10-10T08:24:45.225Z,18.87
2022-10-10T08:29:47.668Z,18.70
2022-10-10T08:34:50.620Z,17.50
2022-10-10T08:39:53.163Z,19.80
2022-10-10T08:44:59.276Z,18.83
2022-10-10T08:50:35.405Z,15.00
2022-10-10T08:55:43.545Z,13.23
2022-10-10T09:00:54.953Z,14.73
2022-10-10T09:06:32.543Z,16.03
2022-10-10T09:11:53.118Z,18.27
2022-10-10T09:17:02.325Z,15.70
2022-10-10T09:22:11.441Z,16.60
2022-10-10T09:27:20.254Z,18.37
2022-10-10T09:32:36.253Z,15.23
2022-10-10T09:37:47.394Z,13.20
2022-10-10T09:42:50.634Z,13.50
2022-10-10T09:47:55.685Z,12.30
2022-10-10T09:52:58.879Z,10.80
2022-10-10T09:58:32.268Z,14.80
2022-10-10T10:03:34.577Z,11.13
2022-10-10T10:08:37.512Z,13.30
2022-10-10T10:13:39.916Z,14.40
2022-10-10T10:18:47.465Z,11.40
2022-10-10T10:23:55.816Z,9.53
2022-10-10T10:28:58.409Z,12.43
2022-10-10T10:34:16.467Z,11.67
2022-10-10T10:39:31.311Z,12.00
2022-10-10T10:44:47.788Z,13.60
2022-10-10T10:50:27.938Z,16.23
2022-10-10T10:55:39.685Z,13.87
2022-10-10T11:01:27.966Z,11.60
2022-10-10T11:06:59.916Z,11.53
2022-10-10T11:12:43.019Z,11.13
2022-10-10T11:18:09.724Z,10.23
2022-10-10T11:23:28.327Z,9.20
2022-10-10T11:28:44.888Z,12.57
2022-10-10T11:33:57.268Z,13.57
2022-10-10T11:39:21.960Z,13.57
2022-10-10T11:44:28.091Z,20.47
2022-10-10T11:49:43.303Z,14.17
2022-10-10T11:54:45.669Z,12.93
2022-10-10T12:00:03.275Z,11.40
2022-10-10T12:05:19.579Z,16.63
2022-10-10T12:10:30.786Z,12.40
2022-10-10T12:15:41.945Z,12.30
2022-10-10T12:20:46.329Z,11.43
2022-10-10T12:25:51.398Z,12.67
2022-10-10T12:30:58.551Z,14.57
2022-10-10T12:36:19.707Z,9.47
2022-10-10T12:41:22.218Z,10.17
2022-10-10T12:46:35.821Z,12.30
2022-10-10T12:51:38.771Z,10.50
2022-10-10T12:56:44.078Z,10.07
2022-10-10T13:01:53.390Z,10.33
2022-10-10T13:06:59.002Z,11.27
2022-10-10T13:12:04.961Z,12.67
2022-10-10T13:17:37.305Z,15.77
2022-10-10T13:22:42.994Z,16.47
2022-10-10T13:27:48.903Z,16.20
2022-10-10T13:32:54.224Z,13.80
2022-10-10T13:38:00.355Z,20.60
2022-10-10T13:43:02.924Z,13.03
2022-10-10T13:48:17.000Z,14.40
2022-10-10T13:53:31.793Z,26.47
2022-10-10T13:58:42.515Z,24.57
2022-10-10T14:03:48.422Z,91.47
2022-10-10T14:08:52.882Z,39.50
2022-10-10T14:14:08.990Z,63.67
2022-10-10T14:19:22.182Z,41.87
2022-10-10T14:24:25.342Z,26.30
2022-10-10T14:29:27.740Z,21.87
2022-10-10T14:34:30.328Z,29.20
2022-10-10T14:39:33.065Z,22.23
2022-10-10T14:44:35.425Z,48.73
2022-10-10T14:49:37.836Z,27.73
2022-10-10T14:54:40.541Z,36.47
2022-10-10T14:59:49.682Z,34.43
2022-10-10T15:04:52.820Z,26.77
2022-10-10T15:15:17.768Z,37.60
2022-10-10T15:20:24.081Z,36.50
2022-10-10T15:25:33.131Z,74.57
2022-10-10T15:30:40.728Z,70.17
2022-10-10T15:36:08.020Z,50.23
2022-10-10T15:41:10.734Z,28.23
2022-10-10T15:46:13.236Z,30.57
2022-10-10T15:51:19.349Z,26.43
2022-10-10T15:56:21.855Z,29.23
2022-10-10T16:01:24.993Z,34.23
2022-10-10T16:06:27.642Z,36.87
2022-10-10T16:11:30.061Z,33.73
2022-10-10T16:16:34.171Z,51.20
2022-10-10T16:21:36.770Z,69.57
2022-10-10T16:26:39.419Z,63.50
2022-10-10T16:31:43.086Z,73.80
2022-10-10T16:36:45.519Z,79.33
2022-10-10T16:41:48.982Z,68.23
2022-10-10T16:46:51.854Z,66.63
2022-10-10T16:51:54.258Z,62.27
2022-10-10T16:56:56.686Z,70.10
2022-10-10T17:01:59.132Z,61.53
2022-10-10T17:07:01.727Z,66.53
2022-10-10T17:12:04.297Z,132.73
2022-10-10T17:17:12.214Z,140.70
2022-10-10T17:22:16.584Z,132.67
2022-10-10T17:27:19.101Z,185.80
2022-10-10T17:32:22.521Z,260.50
2022-10-10T17:37:25.111Z,217.97
2022-10-10T17:42:27.613Z,239.27
2022-10-10T17:47:30.106Z,199.57
2022-10-10T17:52:32.527Z,155.77
2022-10-10T17:57:35.665Z,136.87
2022-10-10T18:02:38.318Z,146.70
2022-10-10T18:07:41.075Z,155.57
2022-10-10T18:12:43.463Z,159.03
2022-10-10T18:17:48.232Z,111.20
2022-10-10T18:22:50.690Z,84.40
2022-10-10T18:27:53.477Z,65.47
2022-10-10T18:32:56.177Z,55.67
2022-10-10T18:37:58.506Z,60.03
2022-10-10T18:43:00.868Z,55.60
2022-10-10T18:48:03.367Z,60.97
2022-10-10T18:53:05.837Z,85.30
2022-10-10T18:58:08.236Z,86.33
2022-10-10T19:03:10.623Z,93.10
2022-10-10T19:08:14.244Z,94.67
2022-10-10T19:13:17.548Z,110.53
2022-10-10T19:18:22.533Z,128.03
2022-10-10T19:23:25.702Z,122.13
2022-10-10T19:28:28.333Z,133.83
2022-10-10T19:33:31.114Z,130.87
2022-10-10T19:38:34.160Z,117.83
2022-10-10T19:43:36.726Z,125.90
2022-10-10T19:48:39.885Z,113.80
2022-10-10T19:53:44.160Z,106.43
2022-10-10T19:58:46.824Z,97.63
2022-10-10T20:03:52.090Z,90.60
2022-10-10T20:08:55.177Z,97.37
2022-10-10T20:13:58.402Z,82.33
2022-10-10T20:19:00.813Z,97.67
2022-10-10T20:24:09.296Z,93.70
2022-10-10T20:29:11.953Z,73.00
2022-10-10T20:34:14.370Z,69.03
2022-10-10T20:39:16.800Z,78.90
2022-10-10T20:44:19.310Z,68.60
2022-10-10T20:49:22.626Z,63.43
2022-10-10T20:54:25.091Z,55.30
2022-10-10T20:59:27.590Z,56.03
2022-10-10T21:04:30.230Z,63.73
2022-10-10T21:09:32.974Z,67.23
2022-10-10T21:14:35.420Z,73.67
2022-10-10T21:19:37.839Z,72.63
2022-10-10T21:24:40.216Z,77.90
2022-10-10T21:29:42.611Z,81.70
2022-10-10T21:34:45.042Z,75.33
2022-10-10T21:39:47.470Z,72.37
2022-10-10T21:44:49.900Z,65.87
2022-10-10T21:49:52.465Z,111.20
2022-10-10T21:54:54.830Z,109.63
2022-10-10T21:59:57.182Z,62.77
2022-10-10T22:05:02.377Z,62.80
2022-10-10T22:10:15.022Z,50.40
2022-10-10T22:15:17.724Z,49.53
2022-10-10T22:20:20.345Z,56.70
2022-10-10T22:25:22.920Z,46.57
2022-10-10T22:30:25.422Z,43.30
2022-10-10T22:35:27.790Z,49.60
2022-10-10T22:40:30.990Z,43.30
2022-10-10T22:45:34.141Z,41.53
2022-10-10T22:50:36.578Z,33.07
2022-10-10T22:55:38.957Z,28.13
2022-10-10T23:00:41.420Z,27.97
2022-10-10T23:05:45.333Z,25.57
2022-10-10T23:10:48.100Z,28.83
2022-10-10T23:15:51.656Z,26.63
2022-10-10T23:20:54.037Z,30.23
2022-10-10T23:25:56.382Z,30.00
2022-10-10T23:31:03.275Z,30.43
2022-10-10T23:36:09.764Z,29.40
2022-10-10T23:41:12.874Z,26.43
2022-10-10T23:46:15.275Z,30.07
2022-10-10T23:51:17.901Z,35.53
2022-10-10T23:56:20.351Z,29.97
